createdAt,value
2023-06-07T00:01:55.883Z,20.67
2023-06-07T00:05:01.259Z,25.67
2023-06-07T00:08:05.513Z,15.33
2023-06-07T00:11:10.217Z,17.67
2023-06-07T00:14:13.742Z,20.33
2023-06-07T00:17:17.411Z,13.33
2023-06-07T00:20:22.590Z,21.00
2023-06-07T00:23:30.070Z,17.67
2023-06-07T00:26:33.962Z,17.00
2023-06-07T00:29:38.263Z,17.33
2023-06-07T00:32:43.260Z,19.33
2023-06-07T00:35:48.523Z,20.67
2023-06-07T00:38:52.770Z,17.33
2023-06-07T00:41:57.939Z,21.00
2023-06-07T00:45:01.579Z,19.67
2023-06-07T00:48:06.365Z,17.00
2023-06-07T00:51:12.413Z,16.67
2023-06-07T00:54:19.112Z,19.33
2023-06-07T00:57:23.382Z,22.67
2023-06-07T01:00:27.572Z,24.33
2023-06-07T01:03:32.886Z,21.33
2023-06-07T01:06:39.308Z,22.00
2023-06-07T01:09:42.864Z,17.33
2023-06-07T01:12:49.061Z,18.67
2023-06-07T01:15:53.969Z,19.33
2023-06-07T01:19:04.746Z,18.67
2023-06-07T01:22:11.991Z,23.67
2023-06-07T01:25:17.182Z,27.00
2023-06-07T01:28:21.262Z,32.00
2023-06-07T01:31:27.813Z,20.67
2023-06-07T01:34:32.225Z,29.00
2023-06-07T01:37:37.178Z,24.67
2023-06-07T01:40:43.226Z,29.67
2023-06-07T01:43:49.837Z,26.00
2023-06-07T01:46:53.496Z,24.67
2023-06-07T01:50:01.162Z,23.00
2023-06-07T01:53:05.123Z,27.00
2023-06-07T01:56:18.703Z,25.33
2023-06-07T01:59:30.999Z,27.00
2023-06-07T02:02:42.968Z,24.33
2023-06-07T02:05:50.735Z,26.33
2023-06-07T02:08:57.188Z,23.67
2023-06-07T02:12:07.397Z,24.67
2023-06-07T02:15:11.919Z,21.00
2023-06-07T02:18:18.228Z,27.00
2023-06-07T02:21:22.121Z,27.33
2023-06-07T02:24:26.809Z,24.33
2023-06-07T02:27:31.833Z,26.33
2023-06-07T02:30:36.961Z,28.00
2023-06-07T02:33:40.436Z,26.33
2023-06-07T02:36:44.678Z,24.00
2023-06-07T02:39:48.166Z,23.00
2023-06-07T02:42:53.695Z,20.67
2023-06-07T02:45:57.418Z,28.67
2023-06-07T02:49:01.329Z,26.67
2023-06-07T02:52:07.760Z,30.67
2023-06-07T02:55:11.836Z,11.00
2023-06-07T02:58:16.871Z,23.67
2023-06-07T03:01:20.744Z,21.00
2023-06-07T03:04:29.875Z,26.67
2023-06-07T03:07:37.098Z,24.33
2023-06-07T03:10:46.754Z,23.33
2023-06-07T03:13:58.534Z,22.00
2023-06-07T03:17:10.347Z,23.33
2023-06-07T03:20:15.356Z,27.00
2023-06-07T03:23:20.500Z,27.00
2023-06-07T03:26:26.932Z,21.67
2023-06-07T03:29:35.355Z,21.67
2023-06-07T03:32:39.586Z,30.33
2023-06-07T03:35:45.615Z,25.33
2023-06-07T03:38:54.843Z,20.67
2023-06-07T03:41:58.937Z,23.00
2023-06-07T03:45:06.106Z,23.67
2023-06-07T03:48:10.006Z,22.00
2023-06-07T03:51:14.485Z,25.00
2023-06-07T03:54:19.480Z,27.00
2023-06-07T03:57:23.181Z,24.67
2023-06-07T04:00:29.138Z,28.33
2023-06-07T04:03:34.258Z,24.00
2023-06-07T04:06:40.945Z,23.00
2023-06-07T04:09:45.927Z,27.67
2023-06-07T04:12:52.006Z,22.33
2023-06-07T04:15:57.201Z,27.33
2023-06-07T04:19:02.297Z,24.67
2023-06-07T04:22:09.404Z,24.67
2023-06-07T04:25:12.940Z,21.67
2023-06-07T04:28:16.751Z,29.67
2023-06-07T04:31:23.946Z,24.67
2023-06-07T04:34:29.457Z,23.67
2023-06-07T04:37:33.977Z,27.67
2023-06-07T04:40:42.452Z,17.67
2023-06-07T04:43:50.047Z,32.33
2023-06-07T04:47:07.996Z,28.33
2023-06-07T04:50:14.915Z,31.00
2023-06-07T04:53:21.046Z,30.33
2023-06-07T04:56:26.984Z,26.33
2023-06-07T04:59:35.934Z,29.00
2023-06-07T05:02:47.603Z,28.67
2023-06-07T05:05:56.669Z,29.00
2023-06-07T05:09:00.444Z,28.67
2023-06-07T05:12:05.333Z,23.33
2023-06-07T05:15:10.646Z,27.33
2023-06-07T05:18:21.416Z,27.67
2023-06-07T05:21:27.928Z,22.67
2023-06-07T05:24:32.051Z,25.67
2023-06-07T05:27:36.233Z,27.00
2023-06-07T05:30:40.377Z,25.00
2023-06-07T05:33:46.204Z,28.00
2023-06-07T05:36:52.674Z,25.33
2023-06-07T05:39:56.716Z,24.33
2023-06-07T05:43:00.364Z,27.67
2023-06-07T05:46:03.956Z,21.33
2023-06-07T05:49:08.858Z,26.00
2023-06-07T05:52:12.774Z,24.33
2023-06-07T05:55:17.739Z,17.33
2023-06-07T05:58:21.296Z,25.00
2023-06-07T06:01:25.136Z,20.00
2023-06-07T06:04:30.556Z,16.33
2023-06-07T06:07:34.255Z,19.33
2023-06-07T06:10:37.781Z,12.67
2023-06-07T06:13:41.525Z,10.67
2023-06-07T06:16:45.460Z,16.67
2023-06-07T06:19:50.794Z,16.00
2023-06-07T06:22:54.534Z,15.33
2023-06-07T06:25:58.001Z,20.33
2023-06-07T06:29:02.082Z,13.00
2023-06-07T06:32:06.572Z,16.33
2023-06-07T06:35:12.358Z,17.67
2023-06-07T06:38:16.368Z,16.33
2023-06-07T06:41:20.593Z,19.00
2023-06-07T06:44:24.348Z,24.67
2023-06-07T06:47:28.589Z,17.67
2023-06-07T06:50:34.439Z,18.33
2023-06-07T06:53:38.582Z,18.00
2023-06-07T06:56:42.631Z,20.67
2023-06-07T06:59:50.467Z,17.00
2023-06-07T07:02:54.173Z,17.67
2023-06-07T07:05:59.493Z,20.00
2023-06-07T07:09:02.952Z,17.00
2023-06-07T07:12:08.106Z,19.33
2023-06-07T07:15:11.993Z,20.33
2023-06-07T07:18:15.775Z,18.67
2023-06-07T07:21:20.673Z,18.67
2023-06-07T07:24:24.069Z,20.67
2023-06-07T07:27:27.458Z,21.33
2023-06-07T07:30:31.160Z,19.67
2023-06-07T07:33:34.931Z,19.33
2023-06-07T07:36:41.090Z,19.00
2023-06-07T07:39:44.668Z,21.67
2023-06-07T07:42:48.442Z,19.50
2023-06-07T07:45:52.265Z,22.50
2023-06-07T07:48:55.946Z,19.00
2023-06-07T07:52:01.226Z,48.33
2023-06-07T07:55:05.565Z,15.75
2023-06-07T07:58:09.247Z,12.75
2023-06-07T08:01:13.052Z,15.00
2023-06-07T08:04:17.057Z,16.00
2023-06-07T08:07:24.831Z,14.50
2023-06-07T08:10:28.276Z,18.00
2023-06-07T08:13:31.786Z,12.00
2023-06-07T08:16:35.981Z,14.25
2023-06-07T08:19:39.845Z,15.75
2023-06-07T08:22:49.298Z,11.50
2023-06-07T08:25:52.906Z,16.00
2023-06-07T08:28:56.467Z,15.75
2023-06-07T08:32:03.524Z,16.50
2023-06-07T08:35:09.242Z,12.60
2023-06-07T08:38:18.592Z,14.20
2023-06-07T08:41:23.175Z,13.20
2023-06-07T08:44:30.256Z,15.80
2023-06-07T08:47:38.587Z,13.60
2023-06-07T08:50:54.700Z,13.00
2023-06-07T08:54:05.164Z,13.80
2023-06-07T08:57:11.537Z,15.40
2023-06-07T09:00:17.990Z,11.80
2023-06-07T09:03:24.551Z,10.80
2023-06-07T09:06:29.625Z,14.60
2023-06-07T09:09:35.872Z,15.60
2023-06-07T09:12:39.543Z,11.60
2023-06-07T09:15:51.590Z,15.40
2023-06-07T09:18:56.868Z,15.00
2023-06-07T09:22:01.186Z,13.20
2023-06-07T09:25:13.256Z,12.80
2023-06-07T09:28:25.239Z,17.00
2023-06-07T09:31:34.762Z,12.80
2023-06-07T09:34:39.600Z,16.40
2023-06-07T09:37:46.955Z,11.60
2023-06-07T09:40:56.037Z,13.00
2023-06-07T09:44:03.447Z,14.80
2023-06-07T09:47:10.393Z,17.20
2023-06-07T09:50:16.253Z,14.40
2023-06-07T09:53:24.368Z,11.60
2023-06-07T09:56:31.483Z,8.00
2023-06-07T09:59:35.482Z,14.40
2023-06-07T10:02:43.693Z,12.60
2023-06-07T10:05:49.962Z,12.20
2023-06-07T10:08:54.398Z,11.60
2023-06-07T10:12:01.429Z,12.60
2023-06-07T10:15:06.255Z,17.80
2023-06-07T10:18:19.095Z,11.00
2023-06-07T10:21:28.969Z,15.00
2023-06-07T10:24:42.900Z,11.40
2023-06-07T10:27:55.570Z,14.40
2023-06-07T10:31:06.857Z,15.60
2023-06-07T10:34:15.343Z,14.00
2023-06-07T10:37:20.301Z,16.20
2023-06-07T10:40:27.384Z,17.40
2023-06-07T10:43:35.237Z,15.60
2023-06-07T10:46:48.067Z,12.20
2023-06-07T10:49:53.963Z,14.00
2023-06-07T10:52:59.539Z,16.80
2023-06-07T10:56:32.522Z,14.40
2023-06-07T10:59:38.881Z,14.80
2023-06-07T11:02:45.649Z,9.80
2023-06-07T11:06:12.953Z,14.20
2023-06-07T11:09:30.924Z,16.00
2023-06-07T11:12:58.213Z,16.20
2023-06-07T11:16:34.397Z,11.60
2023-06-07T11:20:07.332Z,12.60
2023-06-07T11:23:28.953Z,12.00
2023-06-07T11:26:37.789Z,11.80
2023-06-07T11:29:45.097Z,11.40
2023-06-07T11:32:51.731Z,13.40
2023-06-07T11:35:59.056Z,11.40
2023-06-07T11:39:10.558Z,13.60
2023-06-07T11:42:16.593Z,13.20
2023-06-07T11:45:20.751Z,15.00
2023-06-07T11:48:32.435Z,14.00
2023-06-07T11:51:39.939Z,15.80
2023-06-07T11:54:48.632Z,13.00
2023-06-07T11:57:57.132Z,13.00
2023-06-07T12:01:06.011Z,14.80
2023-06-07T12:04:10.957Z,14.40
2023-06-07T12:07:23.820Z,15.80
2023-06-07T12:10:28.981Z,12.80
2023-06-07T12:13:38.483Z,11.60
2023-06-07T12:16:42.518Z,14.80
2023-06-07T12:19:46.749Z,12.40
2023-06-07T12:22:52.233Z,11.80
2023-06-07T12:26:07.715Z,11.80
2023-06-07T12:29:11.125Z,10.40
2023-06-07T12:32:14.548Z,7.60
2023-06-07T12:35:18.031Z,11.40
2023-06-07T12:38:25.723Z,9.40
2023-06-07T12:41:32.046Z,13.20
2023-06-07T12:44:36.438Z,10.80
2023-06-07T12:47:40.273Z,10.40
2023-06-07T12:50:43.923Z,13.60
2023-06-07T12:53:48.981Z,13.40
2023-06-07T12:56:52.466Z,14.20
2023-06-07T12:59:55.903Z,13.60
2023-06-07T13:02:59.458Z,12.20
2023-06-07T13:06:03.846Z,11.80
2023-06-07T13:09:10.706Z,10.40
2023-06-07T13:12:15.875Z,12.40
2023-06-07T13:15:20.227Z,10.20
2023-06-07T13:18:27.255Z,14.00
2023-06-07T13:21:31.224Z,14.20
2023-06-07T13:24:36.294Z,15.20
2023-06-07T13:27:39.794Z,15.40
2023-06-07T13:30:43.219Z,12.80
2023-06-07T13:33:46.970Z,13.20
2023-06-07T13:36:51.012Z,12.60
2023-06-07T13:39:55.951Z,13.60
2023-06-07T13:42:59.341Z,13.20
2023-06-07T13:46:03.938Z,14.80
2023-06-07T13:49:08.418Z,9.40
2023-06-07T13:52:11.901Z,11.20
2023-06-07T13:55:16.921Z,11.20
2023-06-07T13:58:21.119Z,7.20
2023-06-07T14:01:25.313Z,9.60
2023-06-07T14:04:29.821Z,12.20
2023-06-07T14:07:33.449Z,12.20
2023-06-07T14:10:38.383Z,12.00
2023-06-07T14:13:43.660Z,9.80
2023-06-07T14:16:47.425Z,18.00
2023-06-07T14:19:50.808Z,16.00
2023-06-07T14:22:54.453Z,12.50
2023-06-07T14:25:59.789Z,12.50
2023-06-07T14:29:03.565Z,17.00
2023-06-07T14:32:07.990Z,12.50
2023-06-07T14:35:11.907Z,12.00
2023-06-07T14:38:15.654Z,16.67
2023-06-07T14:41:20.689Z,19.33
2023-06-07T14:44:25.582Z,20.00
2023-06-07T14:47:29.158Z,16.00
2023-06-07T14:50:33.295Z,13.33
2023-06-07T14:53:37.856Z,13.00
2023-06-07T14:56:43.137Z,20.00
2023-06-07T14:59:46.907Z,21.33
2023-06-07T15:02:51.224Z,18.00
2023-06-07T15:05:55.026Z,28.00
2023-06-07T15:08:58.677Z,16.00
2023-06-07T15:12:06.888Z,35.33
2023-06-07T15:15:11.391Z,32.00
2023-06-07T15:18:17.085Z,30.33
2023-06-07T15:21:20.796Z,27.33
2023-06-07T15:24:25.006Z,28.00
2023-06-07T15:27:29.955Z,22.67
2023-06-07T15:30:33.693Z,24.33
2023-06-07T15:33:37.198Z,31.33
2023-06-07T15:36:40.666Z,22.67
2023-06-07T15:39:47.460Z,16.00
2023-06-07T15:42:52.376Z,31.00
2023-06-07T15:45:55.965Z,27.67
2023-06-07T15:48:59.452Z,25.67
2023-06-07T15:52:02.937Z,30.00
2023-06-07T15:55:07.656Z,29.67
2023-06-07T15:58:13.248Z,26.00
2023-06-07T16:01:16.877Z,22.67
2023-06-07T16:04:20.662Z,24.00
2023-06-07T16:07:24.321Z,24.00
2023-06-07T16:10:27.974Z,22.33
2023-06-07T16:13:33.112Z,23.00
2023-06-07T16:16:36.979Z,22.33
2023-06-07T16:19:40.736Z,26.67
2023-06-07T16:22:44.827Z,23.33
2023-06-07T16:25:49.949Z,20.67
2023-06-07T16:28:55.075Z,23.33
2023-06-07T16:31:58.924Z,22.67
2023-06-07T16:35:03.260Z,24.33
2023-06-07T16:38:07.023Z,26.33
2023-06-07T16:41:11.075Z,22.00
2023-06-07T16:44:18.873Z,24.33
2023-06-07T16:47:22.427Z,30.00
2023-06-07T16:50:26.238Z,22.33
2023-06-07T16:53:29.754Z,24.67
2023-06-07T16:56:33.473Z,22.33
2023-06-07T16:59:38.520Z,20.33
2023-06-07T17:02:47.409Z,22.67
2023-06-07T17:05:54.242Z,24.67
2023-06-07T17:08:58.236Z,25.00
2023-06-07T17:12:01.702Z,24.33
2023-06-07T17:15:08.536Z,24.33
2023-06-07T17:18:14.036Z,27.33
2023-06-07T17:21:18.437Z,25.67
2023-06-07T17:24:22.335Z,23.33
2023-06-07T17:27:26.303Z,31.00
2023-06-07T17:30:32.075Z,25.00
2023-06-07T17:33:36.057Z,39.33
2023-06-07T17:36:43.603Z,27.00
2023-06-07T17:39:47.616Z,34.00
2023-06-07T17:42:51.189Z,49.00
2023-06-07T17:45:56.317Z,47.33
2023-06-07T17:48:59.947Z,38.67
2023-06-07T17:52:13.496Z,31.33
2023-06-07T17:55:25.929Z,37.67
2023-06-07T17:58:35.395Z,47.00
2023-06-07T18:01:40.452Z,49.67
2023-06-07T18:04:44.448Z,67.67
2023-06-07T18:07:47.912Z,42.67
2023-06-07T18:10:54.521Z,43.00
2023-06-07T18:13:58.264Z,36.33
2023-06-07T18:17:04.010Z,43.67
2023-06-07T18:20:09.220Z,39.00
2023-06-07T18:23:13.598Z,32.33
2023-06-07T18:26:17.014Z,27.00
2023-06-07T18:29:20.669Z,32.67
2023-06-07T18:32:25.542Z,33.00
2023-06-07T18:35:28.974Z,36.67
2023-06-07T18:38:32.745Z,65.67
2023-06-07T18:41:37.206Z,44.00
2023-06-07T18:44:42.070Z,53.00
2023-06-07T18:47:48.505Z,40.67
2023-06-07T18:50:52.458Z,87.75
2023-06-07T18:53:58.459Z,78.00
2023-06-07T18:57:05.895Z,86.00
2023-06-07T19:00:13.962Z,64.33
2023-06-07T19:03:21.171Z,53.33
2023-06-07T19:06:25.500Z,50.67
2023-06-07T19:09:31.534Z,53.33
2023-06-07T19:12:39.988Z,47.33
2023-06-07T19:15:43.664Z,49.33
2023-06-07T19:18:51.386Z,44.33
2023-06-07T19:22:00.351Z,39.67
2023-06-07T19:25:04.702Z,51.67
2023-06-07T19:28:08.588Z,41.67
2023-06-07T19:31:12.514Z,56.33
2023-06-07T19:34:17.700Z,46.00
2023-06-07T19:37:21.317Z,45.67
2023-06-07T19:40:26.593Z,39.67
2023-06-07T19:43:30.126Z,39.67
2023-06-07T19:46:33.703Z,33.67
2023-06-07T19:49:39.805Z,34.00
2023-06-07T19:52:43.446Z,30.33
2023-06-07T19:55:47.014Z,31.33
2023-06-07T19:58:50.543Z,24.33
2023-06-07T20:01:55.316Z,31.67
2023-06-07T20:05:00.717Z,37.67
2023-06-07T20:08:08.791Z,31.33
2023-06-07T20:11:12.759Z,34.33
2023-06-07T20:14:16.477Z,32.33
2023-06-07T20:17:21.116Z,32.00
2023-06-07T20:20:26.620Z,32.33
2023-06-07T20:23:30.529Z,34.00
2023-06-07T20:26:34.148Z,25.00
2023-06-07T20:29:40.187Z,31.33
2023-06-07T20:32:43.779Z,35.00
2023-06-07T20:35:48.966Z,33.33
2023-06-07T20:38:52.786Z,32.33
2023-06-07T20:41:57.628Z,27.33
2023-06-07T20:45:01.466Z,31.33
2023-06-07T20:48:05.402Z,25.33
2023-06-07T20:51:10.298Z,24.00
2023-06-07T20:54:14.012Z,25.00
2023-06-07T20:57:17.638Z,26.67
2023-06-07T21:00:22.892Z,25.00
2023-06-07T21:03:27.044Z,26.33
2023-06-07T21:06:32.765Z,24.33
2023-06-07T21:09:36.320Z,28.67
2023-06-07T21:12:39.834Z,24.33
2023-06-07T21:15:45.598Z,26.67
2023-06-07T21:18:49.124Z,24.67
2023-06-07T21:21:54.102Z,21.00
2023-06-07T21:24:57.832Z,22.00
2023-06-07T21:28:01.384Z,27.33
2023-06-07T21:31:04.933Z,20.00
2023-06-07T21:34:08.455Z,23.67
2023-06-07T21:37:13.582Z,22.00
2023-06-07T21:40:17.347Z,17.00
2023-06-07T21:43:21.206Z,14.67
2023-06-07T21:46:24.835Z,18.67
2023-06-07T21:49:28.548Z,18.33
2023-06-07T21:52:33.672Z,23.67
2023-06-07T21:55:37.280Z,19.67
2023-06-07T21:58:40.736Z,18.33
2023-06-07T22:01:44.404Z,16.00
2023-06-07T22:04:48.663Z,14.00
2023-06-07T22:07:53.945Z,18.00
2023-06-07T22:10:57.469Z,15.33
2023-06-07T22:14:03.980Z,25.33
2023-06-07T22:17:09.943Z,27.33
2023-06-07T22:20:15.619Z,18.00
2023-06-07T22:23:21.604Z,27.67
2023-06-07T22:26:25.339Z,23.33
2023-06-07T22:29:28.831Z,23.33
2023-06-07T22:32:33.901Z,24.00
2023-06-07T22:35:37.816Z,29.00
2023-06-07T22:38:42.749Z,24.33
2023-06-07T22:41:46.580Z,26.00
2023-06-07T22:44:50.123Z,31.67
2023-06-07T22:48:04.258Z,24.00
2023-06-07T22:51:08.356Z,20.33
2023-06-07T22:54:13.493Z,17.33
2023-06-07T22:57:17.205Z,23.33
2023-06-07T23:00:21.380Z,13.00
2023-06-07T23:03:24.981Z,18.00
2023-06-07T23:06:32.561Z,15.00
2023-06-07T23:09:38.047Z,14.33
2023-06-07T23:12:44.046Z,11.33
2023-06-07T23:15:47.705Z,12.00
2023-06-07T23:18:51.716Z,14.00
2023-06-07T23:21:57.915Z,16.67
2023-06-07T23:25:02.943Z,15.33
2023-06-07T23:28:07.343Z,18.33
2023-06-07T23:31:10.877Z,21.67
2023-06-07T23:34:14.471Z,16.00
2023-06-07T23:37:18.055Z,22.00
2023-06-07T23:40:23.030Z,14.33
2023-06-07T23:43:26.927Z,11.67
2023-06-07T23:46:31.903Z,12.67
2023-06-07T23:49:36.271Z,17.67
2023-06-07T23:52:42.892Z,18.00
2023-06-07T23:55:47.833Z,18.33
2023-06-07T23:58:51.421Z,18.67
